Time;durP1;ratioP1;P1;durP2;ratioP2;P2;SDS_P1;SDS_P2;PMS_P1;PMS_P2;Temp;Humidity;BMP_temperature;BMP_pressure;BME280_temperature;BME280_humidity;BME280_pressure;Samples;Min_cycle;Max_cycle;Signal;HPM_P1;HPM_P2
2022/03/06 00:00:40;;;;;;;8.00;4.67;;;;;;;-2.22;100.00;99252.89;1795533;80;21812;-68
2022/03/06 00:03:08;;;;;;;7.87;4.30;;;;;;;-2.19;100.00;99269.05;1795277;80;21502;-68
2022/03/06 00:05:34;;;;;;;8.73;4.03;;;;;;;-2.18;100.00;99263.66;1795580;80;20992;-68
2022/03/06 00:08:02;;;;;;;6.87;4.20;;;;;;;-2.17;100.00;99283.87;1795340;80;21076;-69
2022/03/06 00:10:30;;;;;;;6.00;4.10;;;;;;;-2.18;100.00;99291.92;1795514;80;21463;-68
2022/03/06 00:12:58;;;;;;;7.07;4.30;;;;;;;-2.17;100.00;99309.03;1795172;80;21052;-68
2022/03/06 00:15:26;;;;;;;8.07;3.80;;;;;;;-2.15;100.00;99328.80;1795455;80;20962;-70
2022/03/06 00:17:54;;;;;;;6.80;4.10;;;;;;;-2.16;100.00;99342.98;1795419;80;20974;-68
2022/03/06 00:20:23;;;;;;;13.30;6.57;;;;;;;-2.15;100.00;99350.83;1795300;80;21033;-68
2022/03/06 00:22:50;;;;;;;10.53;5.70;;;;;;;-2.16;100.00;99362.39;1795453;80;21083;-67
2022/03/06 00:25:16;;;;;;;12.53;6.03;;;;;;;-2.15;100.00;99375.16;1795387;80;21004;-67
2022/03/06 00:27:43;;;;;;;11.13;5.27;;;;;;;-2.15;100.00;99381.77;1795690;80;20989;-68
2022/03/06 00:30:11;;;;;;;10.80;5.23;;;;;;;-2.16;100.00;99399.48;1795380;80;21009;-68
2022/03/06 00:32:38;;;;;;;11.63;4.90;;;;;;;-2.17;100.00;99408.84;1795409;80;21065;-70
2022/03/06 00:35:07;;;;;;;10.87;5.43;;;;;;;-2.17;100.00;99414.14;1795704;80;20997;-68
2022/03/06 00:37:35;;;;;;;7.73;4.23;;;;;;;-2.17;100.00;99416.80;1795564;80;21060;-69
2022/03/06 00:40:04;;;;;;;7.93;4.10;;;;;;;-2.19;100.00;99426.17;1795357;80;21025;-68
2022/03/06 00:42:31;;;;;;;5.50;3.90;;;;;;;-2.17;100.00;99426.06;1795558;80;21543;-69
2022/03/06 00:44:59;;;;;;;5.60;3.70;;;;;;;-2.16;100.00;99435.69;1795297;80;21534;-69
2022/03/06 00:47:25;;;;;;;6.30;3.90;;;;;;;-2.16;100.00;99435.69;1795746;80;21001;-68
2022/03/06 00:49:52;;;;;;;7.17;4.30;;;;;;;-2.14;100.00;99439.95;1795369;80;21506;-69
2022/03/06 00:52:19;;;;;;;4.93;3.70;;;;;;;-2.13;100.00;99449.57;1795367;80;21033;-68
2022/03/06 00:54:48;;;;;;;5.50;3.60;;;;;;;-2.13;100.00;99460.66;1795451;80;21069;-69
2022/03/06 00:57:15;;;;;;;6.57;3.93;;;;;;;-2.13;100.00;99480.03;1795357;80;21037;-69
2022/03/06 00:59:42;;;;;;;6.63;4.00;;;;;;;-2.11;100.00;99495.38;1795558;80;21033;-68
2022/03/06 01:02:08;;;;;;;9.60;4.93;;;;;;;-2.10;100.00;99512.95;1795593;80;21045;-68
2022/03/06 01:04:37;;;;;;;9.57;5.13;;;;;;;-2.12;100.00;99528.59;1765792;80;21069;-68
2022/03/06 01:07:04;;;;;;;9.23;5.27;;;;;;;-2.16;100.00;99532.38;1795476;80;21539;-68
2022/03/06 01:09:31;;;;;;;11.07;5.80;;;;;;;-2.19;100.00;99544.52;1795612;80;21060;-69
2022/03/06 01:11:58;;;;;;;17.27;9.37;;;;;;;-2.24;100.00;99539.52;1795461;80;21088;-68
2022/03/06 01:14:25;;;;;;;31.73;17.53;;;;;;;-2.29;100.00;99538.48;1795605;80;21012;-70
2022/03/06 01:16:53;;;;;;;18.40;8.90;;;;;;;-2.34;100.00;99533.12;1795329;79;21048;-69
2022/03/06 01:19:20;;;;;;;19.40;11.27;;;;;;;-2.38;100.00;99527.19;1795577;80;21574;-69
2022/03/06 01:21:47;;;;;;;15.33;8.03;;;;;;;-2.43;100.00;99529.28;1795492;80;21486;-69
2022/03/06 01:24:13;;;;;;;12.80;6.23;;;;;;;-2.47;100.00;99525.15;1795554;80;21001;-69
2022/03/06 01:26:42;;;;;;;9.67;5.77;;;;;;;-2.49;100.00;99515.14;1795317;80;21064;-69
2022/03/06 01:29:09;;;;;;;9.37;5.40;;;;;;;-2.49;100.00;99504.55;1795601;80;21025;-69
2022/03/06 01:31:37;;;;;;;9.60;5.60;;;;;;;-2.51;100.00;99496.70;1795585;80;21064;-68
2022/03/06 01:34:04;;;;;;;9.63;5.80;;;;;;;-2.53;100.00;99480.56;1795648;80;21013;-68
2022/03/06 01:36:31;;;;;;;10.27;5.60;;;;;;;-2.52;100.00;99479.59;1795153;80;21044;-69
2022/03/06 01:38:57;;;;;;;11.97;6.13;;;;;;;-2.50;100.00;99467.09;1795616;80;20989;-69
2022/03/06 01:41:24;;;;;;;13.70;8.23;;;;;;;-2.50;100.00;99465.33;1795732;80;21052;-67
2022/03/06 01:43:51;;;;;;;11.17;6.50;;;;;;;-2.52;100.00;99459.73;1795547;80;21021;-68
2022/03/06 01:46:18;;;;;;;13.90;7.20;;;;;;;-2.53;100.00;99468.66;1795623;80;21045;-67
2022/03/06 01:48:45;;;;;;;12.63;6.90;;;;;;;-2.54;100.00;99463.81;1795712;80;21016;-67
2022/03/06 01:51:11;;;;;;;19.60;8.87;;;;;;;-2.58;100.00;99459.67;1795417;78;21032;-69
2022/03/06 01:53:39;;;;;;;20.43;9.40;;;;;;;-2.61;100.00;99453.73;1778607;80;21579;-68
2022/03/06 01:56:06;;;;;;;23.97;10.63;;;;;;;-2.66;100.00;99451.38;1770204;81;21547;-69
2022/03/06 01:58:33;;;;;;;16.83;7.93;;;;;;;-2.72;100.00;99438.57;1770523;81;20971;-69
2022/03/06 02:01:00;;;;;;;15.13;7.47;;;;;;;-2.75;100.00;99436.96;1770580;81;21068;-69
2022/03/06 02:03:28;;;;;;;15.73;8.10;;;;;;;-2.76;100.00;99433.95;1770305;81;21025;-69
2022/03/06 02:05:55;;;;;;;15.83;8.00;;;;;;;-2.76;100.00;99427.34;1770209;81;21015;-68
2022/03/06 02:08:21;;;;;;;15.90;7.80;;;;;;;-2.77;100.00;99417.69;1770330;81;21080;-67
2022/03/06 02:10:50;;;;;;;16.27;8.17;;;;;;;-2.77;100.00;99423.47;1770335;81;21050;-69
2022/03/06 02:13:17;;;;;;;15.93;8.40;;;;;;;-2.79;100.00;99410.34;1770284;81;21025;-69
2022/03/06 02:15:44;;;;;;;16.93;8.37;;;;;;;-2.78;100.00;99408.53;1770490;81;21693;-68
2022/03/06 02:18:11;;;;;;;16.07;7.80;;;;;;;-2.80;100.00;99403.82;1770350;81;21009;-68
2022/03/06 02:20:38;;;;;;;16.23;8.23;;;;;;;-2.81;100.00;99400.33;1770194;81;21066;-68
2022/03/06 02:23:05;;;;;;;15.90;7.97;;;;;;;-2.79;100.00;99378.58;1770196;81;21002;-69
2022/03/06 02:25:35;;;;;;;15.67;8.20;;;;;;;-2.80;100.00;99379.52;1770493;81;20982;-69
2022/03/06 02:28:07;;;;;;;14.80;7.87;;;;;;;-2.80;100.00;99379.52;1728676;81;21054;-69
2022/03/06 02:30:40;;;;;;;17.20;8.50;;;;;;;-2.79;100.00;99373.29;1761582;81;21008;-67
2022/03/06 02:33:11;;;;;;;15.57;8.30;;;;;;;-2.80;100.00;99372.91;1762781;81;21024;-68
2022/03/06 02:35:38;;;;;;;14.23;7.97;;;;;;;-2.80;100.00;99366.77;1762508;81;21024;-70
2022/03/06 02:38:04;;;;;;;13.40;7.40;;;;;;;-2.82;100.00;99363.39;1760135;81;21502;-68
2022/03/06 02:40:37;;;;;;;13.60;7.00;;;;;;;-2.81;100.00;99362.45;1760170;81;21012;-68
2022/03/06 02:43:01;;;;;;;13.90;7.30;;;;;;;-2.80;100.00;99363.64;1756371;81;21096;-69
2022/03/06 02:45:28;;;;;;;13.40;7.20;;;;;;;-2.78;100.00;99367.06;1759662;81;21614;-69
2022/03/06 02:47:56;;;;;;;13.10;7.50;;;;;;;-2.75;100.00;99365.51;1760043;81;21072;-68
2022/03/06 02:50:26;;;;;;;15.20;8.00;;;;;;;-2.73;100.00;99365.41;1760080;81;21522;-67
2022/03/06 02:52:54;;;;;;;15.63;8.13;;;;;;;-2.72;100.00;99366.63;1759856;81;21537;-68
2022/03/06 02:55:21;;;;;;;17.57;8.27;;;;;;;-2.71;100.00;99372.77;1759901;81;21072;-68
2022/03/06 02:57:48;;;;;;;17.70;8.50;;;;;;;-2.72;100.00;99369.77;1759689;81;21083;-68
2022/03/06 03:00:18;;;;;;;18.77;8.83;;;;;;;-2.71;100.00;99375.41;1759988;81;21028;-68
2022/03/06 03:02:45;;;;;;;22.10;10.40;;;;;;;-2.72;100.00;99374.57;1759912;80;21079;-67
2022/03/06 03:05:12;;;;;;;17.23;8.87;;;;;;;-2.70;100.00;99377.95;1759733;81;21047;-68
2022/03/06 03:07:41;;;;;;;21.03;9.27;;;;;;;-2.70;100.00;99381.93;1759624;81;21161;-68
2022/03/06 03:10:10;;;;;;;17.60;8.73;;;;;;;-2.69;100.00;99386.28;1760138;81;21031;-68
2022/03/06 03:12:38;;;;;;;21.70;10.27;;;;;;;-2.69;100.00;99381.48;1759607;81;21526;-68
2022/03/06 03:15:06;;;;;;;21.50;9.40;;;;;;;-2.68;100.00;99387.12;1759646;81;21581;-69
2022/03/06 03:17:33;;;;;;;18.93;9.50;;;;;;;-2.69;100.00;99392.91;1759660;80;21047;-68
2022/03/06 03:20:01;;;;;;;17.10;8.63;;;;;;;-2.69;100.00;99390.73;1759724;81;21016;-69
2022/03/06 03:22:27;;;;;;;18.07;9.00;;;;;;;-2.70;100.00;99404.42;1760060;80;20992;-68
2022/03/06 03:24:54;;;;;;;17.67;8.30;;;;;;;-2.71;100.00;99401.42;1759972;81;21053;-68
2022/03/06 03:27:21;;;;;;;17.13;8.63;;;;;;;-2.73;100.00;99404.63;1771044;80;21009;-69
2022/03/06 03:29:47;;;;;;;21.43;10.10;;;;;;;-2.72;100.00;99406.81;1781082;80;21045;-69
2022/03/06 03:32:15;;;;;;;19.87;10.20;;;;;;;-2.71;100.00;99403.20;1781168;80;21496;-69
2022/03/06 03:34:42;;;;;;;17.07;8.93;;;;;;;-2.73;100.00;99401.97;1781194;80;21042;-68
2022/03/06 03:37:08;;;;;;;15.37;8.67;;;;;;;-2.73;100.00;99409.08;1781216;80;21002;-69
2022/03/06 03:39:35;;;;;;;16.47;8.33;;;;;;;-2.75;100.00;99409.17;1781088;79;20985;-69
2022/03/06 03:42:02;;;;;;;15.10;8.37;;;;;;;-2.77;100.00;99405.78;1781202;80;21064;-69
2022/03/06 03:44:29;;;;;;;16.70;8.40;;;;;;;-2.76;100.00;99411.91;1780847;80;21030;-68
2022/03/06 03:46:55;;;;;;;14.53;7.73;;;;;;;-2.76;100.00;99435.73;1781052;80;21090;-68
2022/03/06 03:49:22;;;;;;;15.30;8.30;;;;;;;-2.77;100.00;99437.54;1781239;80;21029;-69
2022/03/06 03:51:49;;;;;;;13.53;7.77;;;;;;;-2.76;100.00;99445.86;1781122;80;21499;-68
2022/03/06 03:54:15;;;;;;;15.97;8.17;;;;;;;-2.77;100.00;99452.09;1791009;80;20985;-69
2022/03/06 03:56:43;;;;;;;15.97;8.53;;;;;;;-2.76;100.00;99451.16;1795179;80;21056;-68
2022/03/06 03:59:10;;;;;;;15.50;8.33;;;;;;;-2.76;100.00;99452.48;1795430;80;21028;-67
2022/03/06 04:01:37;;;;;;;16.63;8.90;;;;;;;-2.76;100.00;99456.45;1795632;80;20969;-69
2022/03/06 04:04:04;;;;;;;16.43;9.03;;;;;;;-2.76;100.00;99455.13;1795427;80;21056;-69
2022/03/06 04:06:31;;;;;;;18.73;9.43;;;;;;;-2.77;100.00;99460.03;1795153;80;20998;-69
2022/03/06 04:08:58;;;;;;;18.90;9.87;;;;;;;-2.76;100.00;99464.84;1795215;80;21071;-69
2022/03/06 04:11:25;;;;;;;16.83;9.60;;;;;;;-2.76;100.00;99464.39;1795550;78;20977;-69
2022/03/06 04:13:51;;;;;;;17.40;9.87;;;;;;;-2.76;100.00;99465.71;1767082;80;21550;-68
2022/03/06 04:16:18;;;;;;;19.10;9.63;;;;;;;-2.76;100.00;99463.52;1795582;80;20993;-68
2022/03/06 04:18:45;;;;;;;19.30;10.03;;;;;;;-2.77;100.00;99473.27;1795547;80;21047;-69
2022/03/06 04:21:11;;;;;;;19.00;9.23;;;;;;;-2.80;100.00;99469.48;1795103;79;21008;-69
2022/03/06 04:23:39;;;;;;;18.27;9.60;;;;;;;-2.80;100.00;99469.97;1795412;80;21083;-68
2022/03/06 04:26:05;;;;;;;16.97;8.93;;;;;;;-2.82;100.00;99466.58;1795438;80;21039;-69
2022/03/06 04:28:32;;;;;;;16.87;9.03;;;;;;;-2.83;100.00;99471.48;1795568;80;20985;-69
2022/03/06 04:30:59;;;;;;;16.40;8.73;;;;;;;-2.84;100.00;99474.61;1795497;80;21483;-68
2022/03/06 04:33:25;;;;;;;15.77;8.17;;;;;;;-2.82;100.00;99479.81;1795229;80;20977;-69
2022/03/06 04:35:52;;;;;;;17.90;8.77;;;;;;;-2.81;100.00;99480.20;1795493;80;21049;-68
2022/03/06 04:38:19;;;;;;;16.63;8.10;;;;;;;-2.79;100.00;99484.43;1795565;79;21044;-69
2022/03/06 04:40:47;;;;;;;15.67;8.30;;;;;;;-2.76;100.00;99486.89;1795298;80;21044;-68
2022/03/06 04:43:15;;;;;;;17.27;8.80;;;;;;;-2.75;100.00;99489.05;1795432;79;21025;-68
2022/03/06 04:45:43;;;;;;;15.73;8.20;;;;;;;-2.73;100.00;99491.12;1795255;80;21021;-69
2022/03/06 04:48:10;;;;;;;14.03;7.97;;;;;;;-2.71;100.00;99487.89;1795409;80;21040;-69
2022/03/06 04:50:38;;;;;;;15.10;8.73;;;;;;;-2.69;100.00;99492.64;1795389;80;21021;-68
2022/03/06 04:53:05;;;;;;;15.10;8.20;;;;;;;-2.68;100.00;99500.45;1792684;78;21028;-68
2022/03/06 04:55:32;;;;;;;17.10;8.73;;;;;;;-2.63;100.00;99502.80;1795341;80;21455;-69
2022/03/06 04:57:59;;;;;;;16.83;8.17;;;;;;;-2.59;100.00;99495.03;1795096;80;21051;-68
2022/03/06 05:00:26;;;;;;;16.10;8.20;;;;;;;-2.55;100.00;99497.87;1795187;80;21361;-68
2022/03/06 05:02:53;;;;;;;16.57;8.17;;;;;;;-2.49;100.00;99500.58;1795300;80;21079;-69
2022/03/06 05:05:19;;;;;;;15.50;7.50;;;;;;;-2.44;100.00;99504.23;1795467;80;21685;-69
2022/03/06 05:07:47;;;;;;;16.63;8.13;;;;;;;-2.41;100.00;99502.71;1795446;80;21001;-69
2022/03/06 05:10:13;;;;;;;14.93;7.77;;;;;;;-2.35;100.00;99510.27;1795549;80;20981;-69
2022/03/06 05:12:41;;;;;;;26.63;17.57;;;;;;;-2.33;100.00;99499.93;1795526;80;21052;-69
2022/03/06 05:15:10;;;;;;;14.57;7.83;;;;;;;-2.30;100.00;99509.00;1795355;78;21043;-68
2022/03/06 05:17:38;;;;;;;17.27;8.77;;;;;;;-2.29;100.00;99493.47;1795623;80;21021;-69
2022/03/06 05:20:07;;;;;;;15.57;7.87;;;;;;;-2.26;100.00;99500.38;1795677;80;20996;-68
2022/03/06 05:22:34;;;;;;;15.03;8.50;;;;;;;-2.19;100.00;99501.66;1795652;80;21060;-68
2022/03/06 05:25:01;;;;;;;17.17;8.63;;;;;;;-2.14;100.00;99500.03;1795436;80;21016;-69
2022/03/06 05:27:28;;;;;;;16.90;9.07;;;;;;;-2.10;100.00;99503.67;1795369;80;21506;-69
2022/03/06 05:29:55;;;;;;;14.17;7.77;;;;;;;-2.02;100.00;99507.61;1795565;80;21474;-70
2022/03/06 05:32:22;;;;;;;16.20;7.90;;;;;;;-1.99;100.00;99498.97;1795551;80;21522;-68
2022/03/06 05:34:50;;;;;;;17.10;9.67;;;;;;;-1.91;100.00;99494.50;1795644;78;21609;-69
2022/03/06 05:37:17;;;;;;;16.07;8.23;;;;;;;-1.84;100.00;99490.92;1795222;80;20993;-68
2022/03/06 05:39:44;;;;;;;15.67;8.17;;;;;;;-1.76;100.00;99479.33;1795639;80;21039;-69
2022/03/06 05:42:10;;;;;;;15.57;8.00;;;;;;;-1.68;100.00;99487.61;1795608;80;21063;-69
2022/03/06 05:44:38;;;;;;;15.43;7.83;;;;;;;-1.62;100.00;99479.70;1795204;80;21055;-68
2022/03/06 05:47:05;;;;;;;14.97;8.23;;;;;;;-1.57;100.00;99471.78;1765905;80;21000;-68
2022/03/06 05:49:31;;;;;;;16.10;8.43;;;;;;;-1.50;100.00;99478.00;1795742;80;21494;-67
2022/03/06 05:51:58;;;;;;;16.27;8.10;;;;;;;-1.48;100.00;99476.08;1795697;80;21013;-69
2022/03/06 05:54:25;;;;;;;18.27;8.63;;;;;;;-1.47;100.00;99469.80;1794410;79;21542;-68
2022/03/06 05:56:52;;;;;;;15.87;8.93;;;;;;;-1.42;100.00;99472.49;1795591;78;21052;-68
2022/03/06 05:59:19;;;;;;;16.50;9.10;;;;;;;-1.36;100.00;99469.91;1795500;80;21569;-68
2022/03/06 06:01:46;;;;;;;14.77;7.77;;;;;;;-1.26;100.00;99473.58;1795743;80;21004;-68
2022/03/06 06:04:13;;;;;;;15.43;8.07;;;;;;;-1.15;100.00;99470.19;1795814;80;21048;-71
2022/03/06 06:06:40;;;;;;;13.20;7.30;;;;;;;-1.06;100.00;99472.63;1795267;80;21038;-70
2022/03/06 06:09:06;;;;;;;14.60;6.93;;;;;;;-0.99;100.00;99477.89;1795634;80;21471;-71
2022/03/06 06:11:34;;;;;;;15.63;8.07;;;;;;;-0.95;100.00;99485.98;1795308;80;21053;-70
2022/03/06 06:14:01;;;;;;;14.80;7.97;;;;;;;-0.91;100.00;99499.88;1795264;79;21119;-69
2022/03/06 06:16:31;;;;;;;15.43;8.03;;;;;;;-0.86;100.00;99505.22;1795615;79;21028;-69
2022/03/06 06:18:58;;;;;;;13.33;7.00;;;;;;;-0.78;100.00;99524.10;1795505;80;21061;-69
2022/03/06 06:21:24;;;;;;;16.57;8.43;;;;;;;-0.71;100.00;99532.44;1795913;80;20973;-70
2022/03/06 06:23:52;;;;;;;14.33;7.37;;;;;;;-0.62;100.00;99565.45;1795337;80;21075;-70
2022/03/06 06:26:18;;;;;;;14.03;7.10;;;;;;;-0.55;100.00;99588.44;1795455;80;21543;-70
2022/03/06 06:28:52;;;;;;;15.37;7.10;;;;;;;-0.48;100.00;99598.98;1795220;80;21499;-69
2022/03/06 06:31:16;;;;;;;12.63;7.30;;;;;;;-0.44;100.00;99622.56;1791492;80;21036;-69
2022/03/06 06:33:42;;;;;;;13.63;7.00;;;;;;;-0.43;100.00;99639.34;1795621;80;21479;-68
2022/03/06 06:36:09;;;;;;;13.40;6.67;;;;;;;-0.40;100.00;99665.20;1795686;80;21488;-69
2022/03/06 06:38:36;;;;;;;13.20;7.40;;;;;;;-0.42;100.00;99692.36;1795345;80;21020;-68
2022/03/06 06:41:03;;;;;;;11.03;6.17;;;;;;;-0.44;100.00;99716.03;1795546;80;21009;-69
2022/03/06 06:43:32;;;;;;;13.73;6.90;;;;;;;-0.37;100.00;99733.23;1795467;80;21044;-68
2022/03/06 06:45:58;;;;;;;11.23;6.37;;;;;;;-0.24;100.00;99739.35;1795652;78;21471;-68
2022/03/06 06:48:25;;;;;;;11.97;6.73;;;;;;;-0.08;100.00;99748.41;1795666;80;21048;-71
2022/03/06 06:50:52;;;;;;;16.23;8.90;;;;;;;0.06;100.00;99766.02;1795976;80;21001;-70
2022/03/06 06:53:19;;;;;;;16.63;7.87;;;;;;;0.15;100.00;99779.14;1795783;80;21021;-70
2022/03/06 06:55:46;;;;;;;11.97;7.00;;;;;;;0.17;100.00;99799.33;1795238;79;21111;-68
2022/03/06 06:58:13;;;;;;;13.77;7.10;;;;;;;0.13;100.00;99826.27;1795469;80;21056;-69
2022/03/06 07:00:41;;;;;;;13.60;7.00;;;;;;;0.07;100.00;99854.59;1795493;79;21621;-70
2022/03/06 07:03:09;;;;;;;11.37;6.50;;;;;;;0.07;100.00;99874.08;1795615;79;20998;-70
2022/03/06 07:05:37;;;;;;;11.90;6.23;;;;;;;0.08;100.00;99890.39;1795475;80;20985;-70
2022/03/06 07:08:04;;;;;;;13.17;7.20;;;;;;;0.12;100.00;99909.63;1795343;80;21012;-69
2022/03/06 07:10:31;;;;;;;15.77;8.37;;;;;;;0.13;100.00;99931.29;1795650;78;21040;-70
2022/03/06 07:12:58;;;;;;;15.00;7.67;;;;;;;0.18;100.00;99945.12;1795541;79;21017;-68
2022/03/06 07:15:32;;;;;;;15.33;8.30;;;;;;;0.27;100.00;99959.09;1795505;80;21033;-69
2022/03/06 07:18:00;;;;;;;16.70;8.03;;;;;;;0.37;100.00;99983.23;1795789;78;21044;-69
2022/03/06 07:20:28;;;;;;;14.77;6.80;;;;;;;0.44;100.00;100007.11;1795757;80;21546;-70
2022/03/06 07:22:55;;;;;;;18.83;7.47;;;;;;;0.49;100.00;100038.73;1796359;79;21037;-69
2022/03/06 07:25:22;;;;;;;18.00;7.50;;;;;;;0.55;100.00;100055.61;1798612;80;21032;-69
2022/03/06 07:27:49;;;;;;;26.73;10.17;;;;;;;0.62;100.00;100079.96;1798863;80;20985;-69
2022/03/06 07:30:15;;;;;;;16.30;7.17;;;;;;;0.73;100.00;100096.06;1796539;80;21017;-69
2022/03/06 07:32:51;;;;;;;13.77;6.27;;;;;;;0.84;100.00;100107.28;1795862;80;20993;-70
2022/03/06 07:35:20;;;;;;;19.03;8.03;;;;;;;0.89;100.00;100127.30;1795883;80;21001;-69
2022/03/06 07:37:47;;;;;;;22.17;8.03;;;;;;;0.87;100.00;100157.17;1795501;80;21033;-70
2022/03/06 07:40:17;;;;;;;17.53;7.23;;;;;;;0.88;100.00;100172.17;1795829;80;20984;-70
2022/03/06 07:42:44;;;;;;;13.83;7.30;;;;;;;0.95;100.00;100185.43;1795807;80;21048;-69
2022/03/06 07:45:11;;;;;;;10.10;5.70;;;;;;;1.12;100.00;100201.59;1795743;80;21013;-70
2022/03/06 07:47:38;;;;;;;12.13;6.50;;;;;;;1.27;100.00;100209.47;1795734;80;21032;-69
2022/03/06 07:50:07;;;;;;;10.83;6.13;;;;;;;1.31;100.00;100229.14;1795522;78;21499;-70
2022/03/06 07:52:35;;;;;;;11.67;6.17;;;;;;;1.27;100.00;100250.76;1795517;80;20982;-69
2022/03/06 07:55:04;;;;;;;9.70;5.67;;;;;;;1.26;100.00;100267.23;1782410;80;21065;-69
2022/03/06 07:57:31;;;;;;;10.77;5.43;;;;;;;1.37;100.00;100266.97;1770224;81;21105;-68
2022/03/06 07:59:58;;;;;;;13.10;6.47;;;;;;;1.45;100.00;100281.93;1770228;81;21030;-69
2022/03/06 08:02:25;;;;;;;8.67;5.53;;;;;;;1.52;100.00;100287.20;1770433;81;21092;-69
2022/03/06 08:04:52;;;;;;;9.27;5.47;;;;;;;1.48;100.00;100307.05;1770748;81;21041;-68
2022/03/06 08:07:20;;;;;;;9.57;5.43;;;;;;;1.37;100.00;100322.44;1770400;81;21585;-68
2022/03/06 08:09:47;;;;;;;10.00;4.97;;;;;;;1.35;100.00;100335.47;1770705;81;21006;-69
2022/03/06 08:12:14;;;;;;;8.63;4.90;;;;;;;1.37;100.00;100348.23;1770753;80;21005;-70
2022/03/06 08:14:41;;;;;;;3.00;2.40;;;;;;;1.38;100.00;100353.92;1770303;81;21081;-68
2022/03/06 08:17:08;;;;;;;3.53;2.30;;;;;;;1.31;100.00;100390.33;1770744;81;21496;-68
2022/03/06 08:19:35;;;;;;;3.00;2.30;;;;;;;1.17;100.00;100422.36;1770632;81;21034;-68
2022/03/06 08:22:03;;;;;;;3.47;2.40;;;;;;;1.09;100.00;100440.65;1770561;81;21087;-68
2022/03/06 08:24:31;;;;;;;3.03;2.30;;;;;;;1.07;100.00;100444.73;1770521;81;21049;-68
2022/03/06 08:26:59;;;;;;;3.10;2.80;;;;;;;1.06;100.00;100450.16;1770728;80;21057;-68
2022/03/06 08:29:25;;;;;;;3.63;2.70;;;;;;;0.98;100.00;100456.00;1770616;80;21117;-68
2022/03/06 08:31:52;;;;;;;5.10;2.60;;;;;;;0.92;100.00;100460.37;1770675;81;21026;-68
2022/03/06 08:34:20;;;;;;;3.97;2.50;;;;;;;0.84;100.00;100463.54;1770700;81;21022;-68
2022/03/06 08:36:47;;;;;;;2.93;2.50;;;;;;;0.77;100.00;100464.04;1770417;81;20959;-70
2022/03/06 08:39:14;;;;;;;3.60;2.60;;;;;;;0.70;100.00;100468.41;1770662;81;21492;-69
2022/03/06 08:41:41;;;;;;;3.10;2.40;;;;;;;0.59;100.00;100468.73;1770836;80;21076;-70
2022/03/06 08:44:08;;;;;;;3.73;2.80;;;;;;;0.49;100.00;100480.41;1770634;80;21124;-69
2022/03/06 08:46:35;;;;;;;5.63;3.30;;;;;;;0.48;100.00;100471.58;1770627;81;20991;-68
2022/03/06 08:49:02;;;;;;;14.17;5.87;;;;;;;0.50;100.00;100469.67;1770670;81;21061;-69
2022/03/06 08:51:29;;;;;;;9.17;4.23;;;;;;;0.47;100.00;100469.01;1770572;81;21456;-68
2022/03/06 08:53:58;;;;;;;9.50;4.27;;;;;;;0.47;100.00;100462.36;1769989;81;20986;-70
2022/03/06 08:56:25;;;;;;;5.37;3.53;;;;;;;0.46;100.00;100457.98;1793936;80;21095;-70
2022/03/06 08:58:57;;;;;;;7.00;3.73;;;;;;;0.45;100.00;100456.28;1794646;80;21064;-69
2022/03/06 09:01:24;;;;;;;5.72;3.65;;;;;;;0.47;100.00;100452.56;1723278;83;21120;-68
2022/03/06 09:03:52;;;;;;;4.10;3.30;;;;;;;0.56;100.00;100453.79;1723000;83;21026;-68
2022/03/06 09:06:19;;;;;;;6.77;3.97;;;;;;;0.66;100.00;100450.09;1722027;83;21079;-68
2022/03/06 09:08:47;;;;;;;11.90;5.23;;;;;;;0.71;100.00;100443.51;1720785;83;21712;-69
2022/03/06 09:11:14;;;;;;;13.23;5.67;;;;;;;0.72;100.00;100447.86;1723221;82;21073;-69
2022/03/06 09:13:41;;;;;;;18.77;9.17;;;;;;;0.75;100.00;100452.16;1723404;83;21010;-68
2022/03/06 09:16:10;;;;;;;21.73;10.40;;;;;;;0.75;100.00;100461.47;1721731;83;21169;-69
2022/03/06 09:18:37;;;;;;;48.63;25.80;;;;;;;0.70;100.00;100464.90;1723309;83;21073;-69
2022/03/06 09:21:05;;;;;;;17.20;7.83;;;;;;;0.70;100.00;100465.74;1722339;83;21038;-68
2022/03/06 09:23:33;;;;;;;9.40;5.10;;;;;;;0.72;100.00;100459.84;1723115;83;21015;-68
2022/03/06 09:26:02;;;;;;;7.53;4.20;;;;;;;0.68;100.00;100464.99;1723252;83;21065;-69
2022/03/06 09:28:29;;;;;;;12.43;5.00;;;;;;;0.67;100.00;100465.93;1723605;83;21018;-68
2022/03/06 09:31:03;;;;;;;15.70;7.07;;;;;;;0.70;100.00;100459.58;1723508;83;21062;-69
2022/03/06 09:33:30;;;;;;;7.30;4.70;;;;;;;0.65;100.00;100465.66;1723326;83;21061;-69
2022/03/06 09:35:57;;;;;;;7.43;4.37;;;;;;;0.64;100.00;100458.16;1723503;83;21132;-68
2022/03/06 09:38:24;;;;;;;11.20;6.77;;;;;;;0.63;100.00;100464.42;1723553;83;21069;-68
2022/03/06 09:40:51;;;;;;;8.00;4.70;;;;;;;0.64;100.00;100454.63;1699960;83;21586;-69
2022/03/06 09:43:19;;;;;;;6.67;4.47;;;;;;;0.72;100.00;100458.52;1694638;85;21547;-69
2022/03/06 09:45:48;;;;;;;7.37;4.60;;;;;;;0.75;100.00;100460.14;1694732;85;20998;-69
2022/03/06 09:48:17;;;;;;;9.27;5.13;;;;;;;0.80;100.00;100455.83;1694466;83;21046;-69
2022/03/06 09:50:44;;;;;;;7.17;4.63;;;;;;;0.84;100.00;100460.87;1694866;85;21154;-69
2022/03/06 09:53:12;;;;;;;9.17;4.57;;;;;;;0.87;100.00;100459.36;1694387;85;21053;-69
2022/03/06 09:55:40;;;;;;;7.23;4.70;;;;;;;0.86;100.00;100468.77;1690263;84;21057;-69
2022/03/06 09:58:07;;;;;;;7.03;3.90;;;;;;;0.80;100.00;100479.34;1738308;80;21035;-69
2022/03/06 10:00:34;;;;;;;6.73;4.10;;;;;;;0.81;100.00;100481.03;1789895;79;21015;-68
2022/03/06 10:03:03;;;;;;;9.13;4.83;;;;;;;0.84;100.00;100473.34;1789824;80;21030;-69
2022/03/06 10:05:38;;;;;;;10.07;4.70;;;;;;;0.87;100.00;100475.81;1752549;82;20998;-69
2022/03/06 10:08:27;;;;;;;7.77;4.37;;;;;;;0.89;100.00;100472.09;1752125;82;21568;-70
2022/03/06 10:11:04;;;;;;;6.43;3.97;;;;;;;0.95;100.00;100473.50;1789886;80;21031;-69
2022/03/06 10:13:34;;;;;;;5.70;4.17;;;;;;;0.97;100.00;100475.58;1752575;82;21021;-69
2022/03/06 10:16:10;;;;;;;6.17;4.20;;;;;;;0.99;100.00;100481.66;1752546;82;20997;-69
2022/03/06 10:18:52;;;;;;;5.90;4.13;;;;;;;0.99;100.00;100485.66;1752439;82;20994;-68
2022/03/06 10:21:29;;;;;;;13.30;7.73;;;;;;;0.99;100.00;100484.31;1752445;82;21227;-69
2022/03/06 10:23:59;;;;;;;5.80;3.93;;;;;;;1.01;100.00;100490.88;1744487;82;21485;-69
2022/03/06 10:26:28;;;;;;;5.77;3.80;;;;;;;1.04;100.00;100479.55;1726110;83;20991;-69
2022/03/06 10:29:04;;;;;;;5.30;4.00;;;;;;;1.05;100.00;100481.28;1744349;82;21055;-70
2022/03/06 10:31:33;;;;;;;7.07;4.87;;;;;;;1.02;100.00;100490.79;1732445;83;21051;-68
2022/03/06 10:34:09;;;;;;;5.10;3.90;;;;;;;0.98;100.00;100490.62;1732652;83;21535;-69
2022/03/06 10:36:45;;;;;;;4.67;3.70;;;;;;;0.94;100.00;100491.77;1732465;83;21092;-68
2022/03/06 10:39:22;;;;;;;6.60;4.40;;;;;;;0.89;100.00;100499.20;1732594;83;21065;-68
2022/03/06 10:41:52;;;;;;;6.43;4.60;;;;;;;0.87;100.00;100491.31;1683872;85;21094;-69
2022/03/06 10:44:21;;;;;;;6.47;4.10;;;;;;;0.93;100.00;100494.89;1683791;85;21058;-69
2022/03/06 10:47:02;;;;;;;6.07;4.07;;;;;;;1.01;100.00;100497.54;1683733;85;21099;-70
2022/03/06 10:49:30;;;;;;;5.03;3.53;;;;;;;0.99;100.00;100497.63;1683698;85;21568;-68
2022/03/06 10:51:57;;;;;;;5.20;3.70;;;;;;;0.98;100.00;100491.95;1683589;85;21065;-69
2022/03/06 10:54:25;;;;;;;5.07;3.53;;;;;;;0.99;100.00;100494.13;1683521;85;21100;-70
2022/03/06 10:56:53;;;;;;;4.23;3.47;;;;;;;0.98;100.00;100490.62;1672347;85;21063;-70
2022/03/06 10:59:24;;;;;;;7.90;4.30;;;;;;;0.97;100.00;100488.89;1671574;86;21102;-70
2022/03/06 11:01:52;;;;;;;5.90;4.17;;;;;;;0.97;100.00;100494.22;1671679;86;21118;-69
2022/03/06 11:04:19;;;;;;;6.33;4.23;;;;;;;1.04;100.00;100482.22;1672036;86;21023;-69
2022/03/06 11:06:48;;;;;;;5.77;3.77;;;;;;;1.14;100.00;100478.01;1671819;86;21075;-69
2022/03/06 11:09:17;;;;;;;7.70;4.10;;;;;;;1.25;100.00;100479.12;1649578;86;21039;-69
2022/03/06 11:11:48;;;;;;;5.70;3.63;;;;;;;1.35;100.00;100481.56;1671665;86;21182;-69
2022/03/06 11:14:15;;;;;;;8.30;4.00;;;;;;;1.39;100.00;100484.39;1672022;86;21039;-68
2022/03/06 11:16:41;;;;;;;6.17;4.10;;;;;;;1.30;100.00;100489.84;1672005;86;21099;-69
2022/03/06 11:19:09;;;;;;;4.93;3.57;;;;;;;1.20;100.00;100497.22;1672068;86;21032;-69
2022/03/06 11:21:42;;;;;;;5.67;4.10;;;;;;;1.08;100.00;100501.06;1642403;86;21135;-69